TimeMST,TemperatureF,Dew PointF,Humidity,Sea Level PressureIn,VisibilityMPH,Wind Direction,Wind SpeedMPH,Gust SpeedMPH,PrecipitationIn,Events,Conditions,WindDirDegrees,DateUTC
12:53 AM,41.0,9.0,27,30.17,10.0,WSW,26.5,34.5,N/A,,Clear,240,2013-01-20 07:53:00
1:53 AM,41.0,9.0,27,30.19,10.0,WSW,27.6,35.7,N/A,,Clear,250,2013-01-20 08:53:00
2:53 AM,37.9,9.0,30,30.24,10.0,WSW,19.6,-,N/A,,Clear,250,2013-01-20 09:53:00
3:23 AM,37.4,10.4,33,30.24,10.0,West,17.3,41.4,N/A,,Clear,280,2013-01-20 10:23:00
3:53 AM,33.1,15.1,48,30.32,10.0,WSW,13.8,-,N/A,,Clear,250,2013-01-20 10:53:00
4:53 AM,26.1,16.0,66,30.37,10.0,WSW,12.7,20.7,N/A,,Clear,250,2013-01-20 11:53:00
5:53 AM,24.1,16.0,71,30.40,10.0,NW,12.7,25.3,N/A,,Clear,310,2013-01-20 12:53:00
6:53 AM,24.1,16.0,71,30.43,10.0,NW,8.1,-,N/A,,Scattered Clouds,320,2013-01-20 13:53:00
7:53 AM,21.9,15.1,75,30.45,10.0,Calm,Calm,-,N/A,,Overcast,0,2013-01-20 14:53:00
8:49 AM,23.0,17.6,80,30.35,10.0,NE,6.9,-,N/A,,Overcast,40,2013-01-20 15:49:00
8:53 AM,23.0,17.1,78,30.46,10.0,NNE,5.8,-,N/A,,Overcast,20,2013-01-20 15:53:00
9:14 AM,24.8,17.6,74,30.35,10.0,NNE,3.5,-,N/A,,Overcast,30,2013-01-20 16:14:00
9:41 AM,23.0,15.8,74,30.36,10.0,WNW,3.5,-,N/A,,Scattered Clouds,290,2013-01-20 16:41:00
9:53 AM,24.1,15.1,69,30.46,10.0,WNW,8.1,-,N/A,,Partly Cloudy,300,2013-01-20 16:53:00
10:53 AM,27.0,16.0,63,30.42,10.0,North,9.2,-,N/A,,Clear,350,2013-01-20 17:53:00
11:53 AM,28.9,16.0,58,30.38,10.0,North,10.4,-,N/A,,Clear,350,2013-01-20 18:53:00
12:53 PM,30.9,17.1,57,30.33,10.0,NNW,13.8,-,N/A,,Clear,330,2013-01-20 19:53:00
1:53 PM,33.1,18.0,54,30.30,10.0,NNW,13.8,-,N/A,,Clear,330,2013-01-20 20:53:00
2:53 PM,33.1,18.0,54,30.29,10.0,NNW,10.4,-,N/A,,Clear,330,2013-01-20 21:53:00
3:53 PM,30.9,16.0,54,30.32,10.0,West,3.5,-,N/A,,Clear,260,2013-01-20 22:53:00
4:53 PM,28.9,16.0,58,30.35,10.0,NE,5.8,-,N/A,,Clear,50,2013-01-20 23:53:00
5:53 PM,24.1,15.1,69,30.39,10.0,East,8.1,-,N/A,,Scattered Clouds,80,2013-01-21 00:53:00
6:53 PM,21.9,14.0,72,30.41,10.0,ESE,4.6,-,N/A,,Clear,120,2013-01-21 01:53:00
7:53 PM,19.0,12.9,77,30.41,10.0,Calm,Calm,-,N/A,,Clear,0,2013-01-21 02:53:00
8:53 PM,19.9,14.0,78,30.40,10.0,NNW,4.6,-,N/A,,Overcast,330,2013-01-21 03:53:00
9:53 PM,21.9,15.1,75,30.37,10.0,Variable,5.8,-,N/A,,Overcast,0,2013-01-21 04:53:00
10:53 PM,25.0,15.1,66,30.34,10.0,NNW,8.1,-,N/A,,Overcast,340,2013-01-21 05:53:00
11:53 PM,28.0,16.0,61,30.29,10.0,NW,11.5,-,N/A,,Overcast,320,2013-01-21 06:53:00